sensor_id;sensor_type;location;lat;lon;timestamp;pressure;altitude;pressure_sealevel;temperature;humidity
48882;BME280;57063;51.406;-2.402;2023-06-10T00:00:44;100226.25;;;15.38;89.24
48882;BME280;57063;51.406;-2.402;2023-06-10T00:03:10;100231.97;;;15.32;89.24
48882;BME280;57063;51.406;-2.402;2023-06-10T00:05:35;100224.78;;;15.25;89.93
48882;BME280;57063;51.406;-2.402;2023-06-10T00:08:04;100230.53;;;15.28;90.05
48882;BME280;57063;51.406;-2.402;2023-06-10T00:10:33;100228.22;;;15.14;90.79
48882;BME280;57063;51.406;-2.402;2023-06-10T00:13:00;100222.38;;;15.01;91.57
48882;BME280;57063;51.406;-2.402;2023-06-10T00:15:26;100228.28;;;15.03;92.00
48882;BME280;57063;51.406;-2.402;2023-06-10T00:17:51;100215.28;;;15.03;91.77
48882;BME280;57063;51.406;-2.402;2023-06-10T00:20:18;100226.16;;;14.96;91.65
48882;BME280;57063;51.406;-2.402;2023-06-10T00:22:43;100215.75;;;14.96;91.78
48882;BME280;57063;51.406;-2.402;2023-06-10T00:25:10;100221.66;;;14.98;91.88
48882;BME280;57063;51.406;-2.402;2023-06-10T00:27:36;100224.50;;;14.95;92.15
48882;BME280;57063;51.406;-2.402;2023-06-10T00:30:05;100234.19;;;15.05;91.53
48882;BME280;57063;51.406;-2.402;2023-06-10T00:32:33;100226.38;;;15.05;90.82
48882;BME280;57063;51.406;-2.402;2023-06-10T00:34:58;100230.16;;;14.89;91.80
48882;BME280;57063;51.406;-2.402;2023-06-10T00:37:24;100225.56;;;14.93;91.68
48882;BME280;57063;51.406;-2.402;2023-06-10T00:39:49;100220.03;;;14.86;91.92
48882;BME280;57063;51.406;-2.402;2023-06-10T00:42:14;100231.13;;;14.77;92.77
48882;BME280;57063;51.406;-2.402;2023-06-10T00:44:40;100231.97;;;14.77;92.65
48882;BME280;57063;51.406;-2.402;2023-06-10T00:47:06;100233.28;;;14.72;93.22
48882;BME280;57063;51.406;-2.402;2023-06-10T00:49:32;100234.59;;;14.66;93.45
48882;BME280;57063;51.406;-2.402;2023-06-10T00:51:58;100223.25;;;14.56;94.26
48882;BME280;57063;51.406;-2.402;2023-06-10T00:54:23;100223.03;;;14.59;93.78
48882;BME280;57063;51.406;-2.402;2023-06-10T00:56:49;100223.03;;;14.59;93.15
48882;BME280;57063;51.406;-2.402;2023-06-10T00:59:15;100216.75;;;14.62;93.03
48882;BME280;57063;51.406;-2.402;2023-06-10T01:01:41;100217.44;;;14.52;93.75
48882;BME280;57063;51.406;-2.402;2023-06-10T01:04:08;100221.91;;;14.50;93.70
48882;BME280;57063;51.406;-2.402;2023-06-10T01:06:54;100231.59;;;14.48;94.07
48882;BME280;57063;51.406;-2.402;2023-06-10T01:12:13;100232.19;;;14.52;93.57
48882;BME280;57063;51.406;-2.402;2023-06-10T01:14:42;100225.72;;;14.58;93.02
48882;BME280;57063;51.406;-2.402;2023-06-10T01:17:10;100219.31;;;14.50;92.62
48882;BME280;57063;51.406;-2.402;2023-06-10T01:19:36;100227.34;;;14.36;94.01
48882;BME280;57063;51.406;-2.402;2023-06-10T01:22:02;100227.59;;;14.33;94.82
48882;BME280;57063;51.406;-2.402;2023-06-10T01:24:28;100224.28;;;14.31;93.94
48882;BME280;57063;51.406;-2.402;2023-06-10T01:26:55;100225.94;;;14.32;93.82
48882;BME280;57063;51.406;-2.402;2023-06-10T01:29:33;100226.41;;;14.26;94.62
48882;BME280;57063;51.406;-2.402;2023-06-10T01:32:08;100223.69;;;14.27;94.62
48882;BME280;57063;51.406;-2.402;2023-06-10T01:34:38;100220.97;;;14.40;93.84
48882;BME280;57063;51.406;-2.402;2023-06-10T01:37:05;100210.13;;;14.46;93.61
48882;BME280;57063;51.406;-2.402;2023-06-10T01:39:31;100214.00;;;14.41;92.19
48882;BME280;57063;51.406;-2.402;2023-06-10T01:41:57;100218.50;;;14.27;93.89
48882;BME280;57063;51.406;-2.402;2023-06-10T01:44:23;100210.69;;;14.16;94.65
48882;BME280;57063;51.406;-2.402;2023-06-10T01:46:49;100210.81;;;14.26;94.87
48882;BME280;57063;51.406;-2.402;2023-06-10T01:49:15;100210.59;;;14.18;95.85
48882;BME280;57063;51.406;-2.402;2023-06-10T01:51:40;100211.53;;;14.28;95.75
48882;BME280;57063;51.406;-2.402;2023-06-10T01:54:06;100207.53;;;14.12;97.01
48882;BME280;57063;51.406;-2.402;2023-06-10T01:56:32;100209.50;;;14.09;97.25
48882;BME280;57063;51.406;-2.402;2023-06-10T01:58:57;100213.16;;;14.06;97.91
48882;BME280;57063;51.406;-2.402;2023-06-10T02:01:27;100208.56;;;14.21;96.73
48882;BME280;57063;51.406;-2.402;2023-06-10T02:03:52;100210.81;;;14.26;97.01
48882;BME280;57063;51.406;-2.402;2023-06-10T02:06:18;100201.25;;;14.26;96.79
48882;BME280;57063;51.406;-2.402;2023-06-10T02:08:44;100211.06;;;14.45;95.05
48882;BME280;57063;51.406;-2.402;2023-06-10T02:11:09;100210.69;;;14.39;95.30
48882;BME280;57063;51.406;-2.402;2023-06-10T02:13:34;100217.19;;;14.33;96.46
48882;BME280;57063;51.406;-2.402;2023-06-10T02:16:00;100219.81;;;14.44;95.00
48882;BME280;57063;51.406;-2.402;2023-06-10T02:18:26;100216.25;;;14.45;95.65
48882;BME280;57063;51.406;-2.402;2023-06-10T02:20:53;100208.94;;;14.39;96.17
48882;BME280;57063;51.406;-2.402;2023-06-10T02:23:19;100207.75;;;14.43;95.81
48882;BME280;57063;51.406;-2.402;2023-06-10T02:25:44;100214.72;;;14.43;96.01
48882;BME280;57063;51.406;-2.402;2023-06-10T02:28:10;100209.06;;;14.38;96.64
48882;BME280;57063;51.406;-2.402;2023-06-10T02:30:35;100221.09;;;14.39;96.21
48882;BME280;57063;51.406;-2.402;2023-06-10T02:33:00;100227.00;;;14.29;97.38
48882;BME280;57063;51.406;-2.402;2023-06-10T02:35:26;100218.50;;;14.27;98.24
48882;BME280;57063;51.406;-2.402;2023-06-10T02:37:52;100230.31;;;14.31;97.65
48882;BME280;57063;51.406;-2.402;2023-06-10T02:40:17;100225.47;;;14.38;97.84
48882;BME280;57063;51.406;-2.402;2023-06-10T02:42:42;100226.06;;;14.19;98.86
48882;BME280;57063;51.406;-2.402;2023-06-10T02:45:08;100219.66;;;14.23;98.42
48882;BME280;57063;51.406;-2.402;2023-06-10T02:47:33;100222.03;;;14.26;98.95
48882;BME280;57063;51.406;-2.402;2023-06-10T02:49:59;100228.53;;;14.21;99.04
48882;BME280;57063;51.406;-2.402;2023-06-10T02:52:24;100229.09;;;14.13;99.24
48882;BME280;57063;51.406;-2.402;2023-06-10T02:54:50;100226.41;;;14.26;99.34
48882;BME280;57063;51.406;-2.402;2023-06-10T02:57:15;100231.13;;;14.09;100.00
48882;BME280;57063;51.406;-2.402;2023-06-10T02:59:41;100226.88;;;14.31;99.98
48882;BME280;57063;51.406;-2.402;2023-06-10T03:02:06;100225.22;;;14.30;99.92
48882;BME280;57063;51.406;-2.402;2023-06-10T03:04:32;100217.44;;;14.07;100.00
48882;BME280;57063;51.406;-2.402;2023-06-10T03:06:58;100220.03;;;14.07;100.00
48882;BME280;57063;51.406;-2.402;2023-06-10T03:09:25;100215.19;;;14.03;100.00
48882;BME280;57063;51.406;-2.402;2023-06-10T03:11:51;100205.25;;;13.97;100.00
48882;BME280;57063;51.406;-2.402;2023-06-10T03:14:16;100209.16;;;14.02;100.00
48882;BME280;57063;51.406;-2.402;2023-06-10T03:16:41;100208.69;;;14.08;100.00
48882;BME280;57063;51.406;-2.402;2023-06-10T03:19:08;100202.09;;;14.27;100.00
48882;BME280;57063;51.406;-2.402;2023-06-10T03:21:34;100205.41;;;14.18;100.00
48882;BME280;57063;51.406;-2.402;2023-06-10T03:24:00;100208.56;;;14.21;100.00
48882;BME280;57063;51.406;-2.402;2023-06-10T03:26:26;100207.50;;;14.24;100.00
48882;BME280;57063;51.406;-2.402;2023-06-10T03:28:52;100194.31;;;14.38;100.00
48882;BME280;57063;51.406;-2.402;2023-06-10T03:31:18;100191.72;;;14.27;100.00
48882;BME280;57063;51.406;-2.402;2023-06-10T03:33:43;100197.72;;;14.39;99.17
48882;BME280;57063;51.406;-2.402;2023-06-10T03:36:08;100201.63;;;14.33;100.00
48882;BME280;57063;51.406;-2.402;2023-06-10T03:38:34;100212.09;;;14.09;100.00
48882;BME280;57063;51.406;-2.402;2023-06-10T03:41:00;100207.69;;;13.76;100.00
48882;BME280;57063;51.406;-2.402;2023-06-10T03:43:26;100209.84;;;13.93;100.00
48882;BME280;57063;51.406;-2.402;2023-06-10T03:45:52;100202.31;;;14.01;100.00
48882;BME280;57063;51.406;-2.402;2023-06-10T03:48:18;100205.84;;;14.00;100.00
48882;BME280;57063;51.406;-2.402;2023-06-10T03:50:43;100210.38;;;14.09;100.00
48882;BME280;57063;51.406;-2.402;2023-06-10T03:53:09;100208.00;;;14.18;100.00
48882;BME280;57063;51.406;-2.402;2023-06-10T03:55:34;100208.25;;;14.15;100.00
48882;BME280;57063;51.406;-2.402;2023-06-10T03:58:00;100211.53;;;14.17;100.00
48882;BME280;57063;51.406;-2.402;2023-06-10T04:00:25;100205.25;;;13.97;100.00
48882;BME280;57063;51.406;-2.402;2023-06-10T04:02:50;100215.97;;;13.92;100.00
48882;BME280;57063;51.406;-2.402;2023-06-10T04:05:17;100218.56;;;13.92;100.00
48882;BME280;57063;51.406;-2.402;2023-06-10T04:07:43;100211.97;;;13.88;100.00
48882;BME280;57063;51.406;-2.402;2023-06-10T04:10:10;100218.00;;;14.00;100.00
48882;BME280;57063;51.406;-2.402;2023-06-10T04:12:36;100210.09;;;14.01;100.00
48882;BME280;57063;51.406;-2.402;2023-06-10T04:15:03;100209.63;;;13.96;100.00
48882;BME280;57063;51.406;-2.402;2023-06-10T04:17:28;100212.44;;;14.04;100.00
48882;BME280;57063;51.406;-2.402;2023-06-10T04:19:54;100207.13;;;13.95;100.00
48882;BME280;57063;51.406;-2.402;2023-06-10T04:22:20;100208.41;;;13.78;100.00
48882;BME280;57063;51.406;-2.402;2023-06-10T04:24:46;100205.94;;;13.87;100.00
48882;BME280;57063;51.406;-2.402;2023-06-10T04:27:11;100200.06;;;13.97;100.00
48882;BME280;57063;51.406;-2.402;2023-06-10T04:29:36;100203.47;;;13.97;100.00
48882;BME280;57063;51.406;-2.402;2023-06-10T04:32:02;100206.53;;;13.91;100.00
48882;BME280;57063;51.406;-2.402;2023-06-10T04:34:28;100209.13;;;13.91;100.00
48882;BME280;57063;51.406;-2.402;2023-06-10T04:36:53;100215.28;;;13.90;100.00
48882;BME280;57063;51.406;-2.402;2023-06-10T04:39:19;100207.25;;;13.93;100.00
48882;BME280;57063;51.406;-2.402;2023-06-10T04:41:45;100211.63;;;14.04;100.00
48882;BME280;57063;51.406;-2.402;2023-06-10T04:44:11;100212.25;;;14.07;100.00
48882;BME280;57063;51.406;-2.402;2023-06-10T04:46:36;100207.03;;;14.19;100.00
48882;BME280;57063;51.406;-2.402;2023-06-10T04:49:02;100209.75;;;14.28;100.00
48882;BME280;57063;51.406;-2.402;2023-06-10T04:51:27;100207.88;;;14.30;100.00
48882;BME280;57063;51.406;-2.402;2023-06-10T04:53:53;100211.56;;;14.39;100.00
48882;BME280;57063;51.406;-2.402;2023-06-10T04:56:18;100213.94;;;14.53;99.53
48882;BME280;57063;51.406;-2.402;2023-06-10T04:58:44;100204.59;;;14.73;96.83
48882;BME280;57063;51.406;-2.402;2023-06-10T05:01:09;100198.69;;;14.71;96.48
48882;BME280;57063;51.406;-2.402;2023-06-10T05:03:35;100203.97;;;14.81;96.17
48882;BME280;57063;51.406;-2.402;2023-06-10T05:06:00;100208.22;;;14.82;95.98
48882;BME280;57063;51.406;-2.402;2023-06-10T05:08:25;100201.84;;;14.75;95.07
48882;BME280;57063;51.406;-2.402;2023-06-10T05:10:51;100206.72;;;14.68;96.38
48882;BME280;57063;51.406;-2.402;2023-06-10T05:13:16;100204.94;;;14.69;96.30
48882;BME280;57063;51.406;-2.402;2023-06-10T05:15:42;100210.59;;;14.74;95.77
48882;BME280;57063;51.406;-2.402;2023-06-10T05:18:10;100211.53;;;14.84;95.45
48882;BME280;57063;51.406;-2.402;2023-06-10T05:20:36;100213.19;;;14.85;96.21
48882;BME280;57063;51.406;-2.402;2023-06-10T05:23:01;100216.25;;;14.90;95.15
48882;BME280;57063;51.406;-2.402;2023-06-10T05:25:30;100214.47;;;14.91;94.83
48882;BME280;57063;51.406;-2.402;2023-06-10T05:27:55;100219.06;;;14.98;94.13
48882;BME280;57063;51.406;-2.402;2023-06-10T05:30:21;100221.44;;;14.90;93.75
48882;BME280;57063;51.406;-2.402;2023-06-10T05:32:46;100223.13;;;14.69;93.80
48882;BME280;57063;51.406;-2.402;2023-06-10T05:35:12;100220.03;;;14.75;94.10
48882;BME280;57063;51.406;-2.402;2023-06-10T05:37:37;100226.41;;;14.48;94.54
48882;BME280;57063;51.406;-2.402;2023-06-10T05:40:02;100225.00;;;14.44;96.06
48882;BME280;57063;51.406;-2.402;2023-06-10T05:42:29;100225.94;;;14.32;97.56
48882;BME280;57063;51.406;-2.402;2023-06-10T05:44:55;100221.44;;;14.45;96.00
48882;BME280;57063;51.406;-2.402;2023-06-10T05:47:20;100224.75;;;14.70;94.75
48882;BME280;57063;51.406;-2.402;2023-06-10T05:49:46;100219.78;;;14.89;92.86
48882;BME280;57063;51.406;-2.402;2023-06-10T05:52:13;100217.59;;;15.17;90.70
48882;BME280;57063;51.406;-2.402;2023-06-10T05:54:38;100230.00;;;15.46;87.42
48882;BME280;57063;51.406;-2.402;2023-06-10T05:57:04;100227.44;;;15.67;87.16
48882;BME280;57063;51.406;-2.402;2023-06-10T05:59:31;100227.66;;;15.75;85.60
48882;BME280;57063;51.406;-2.402;2023-06-10T06:01:56;100237.72;;;15.68;84.90
48882;BME280;57063;51.406;-2.402;2023-06-10T06:04:21;100236.88;;;15.68;85.57
48882;BME280;57063;51.406;-2.402;2023-06-10T06:06:47;100259.03;;;15.30;85.58
48882;BME280;57063;51.406;-2.402;2023-06-10T06:09:12;100269.97;;;15.45;86.05
48882;BME280;57063;51.406;-2.402;2023-06-10T06:11:38;100267.13;;;15.48;85.80
48882;BME280;57063;51.406;-2.402;2023-06-10T06:14:03;100266.19;;;15.49;86.23
48882;BME280;57063;51.406;-2.402;2023-06-10T06:16:28;100269.69;;;15.59;85.85
48882;BME280;57063;51.406;-2.402;2023-06-10T06:18:54;100261.50;;;15.31;86.77
48882;BME280;57063;51.406;-2.402;2023-06-10T06:21:19;100265.56;;;15.24;86.91
48882;BME280;57063;51.406;-2.402;2023-06-10T06:23:44;100271.41;;;15.37;86.48
48882;BME280;57063;51.406;-2.402;2023-06-10T06:26:10;100260.81;;;15.29;86.53
48882;BME280;57063;51.406;-2.402;2023-06-10T06:28:35;100268.63;;;15.29;87.21
48882;BME280;57063;51.406;-2.402;2023-06-10T06:31:01;100258.97;;;15.41;86.33
48882;BME280;57063;51.406;-2.402;2023-06-10T06:33:26;100264.88;;;15.43;86.92
48882;BME280;57063;51.406;-2.402;2023-06-10T06:35:51;100267.91;;;15.71;86.52
48882;BME280;57063;51.406;-2.402;2023-06-10T06:38:17;100268.72;;;15.71;84.28
48882;BME280;57063;51.406;-2.402;2023-06-10T06:40:42;100269.34;;;15.84;83.71
48882;BME280;57063;51.406;-2.402;2023-06-10T06:43:08;100268.47;;;16.68;79.45
48882;BME280;57063;51.406;-2.402;2023-06-10T06:45:33;100270.53;;;16.43;79.71
48882;BME280;57063;51.406;-2.402;2023-06-10T06:47:59;100273.59;;;16.48;79.43
48882;BME280;57063;51.406;-2.402;2023-06-10T06:50:24;100271.59;;;16.41;79.15
48882;BME280;57063;51.406;-2.402;2023-06-10T06:52:50;100277.44;;;16.85;77.20
48882;BME280;57063;51.406;-2.402;2023-06-10T06:55:15;100271.34;;;17.05;75.23
48882;BME280;57063;51.406;-2.402;2023-06-10T06:57:40;100276.53;;;17.05;76.16
48882;BME280;57063;51.406;-2.402;2023-06-10T07:00:06;100274.59;;;16.67;76.96
48882;BME280;57063;51.406;-2.402;2023-06-10T07:02:34;100270.22;;;16.98;76.46
48882;BME280;57063;51.406;-2.402;2023-06-10T07:04:59;100266.16;;;17.44;74.81
48882;BME280;57063;51.406;-2.402;2023-06-10T07:07:25;100271.50;;;18.11;70.36
48882;BME280;57063;51.406;-2.402;2023-06-10T07:09:52;100271.59;;;18.66;68.34
48882;BME280;57063;51.406;-2.402;2023-06-10T07:12:17;100280.50;;;18.73;67.87
48882;BME280;57063;51.406;-2.402;2023-06-10T07:14:44;100273.84;;;19.34;65.13
48882;BME280;57063;51.406;-2.402;2023-06-10T07:17:09;100268.38;;;19.28;63.55
48882;BME280;57063;51.406;-2.402;2023-06-10T07:19:35;100272.09;;;20.83;59.24
48882;BME280;57063;51.406;-2.402;2023-06-10T07:22:00;100267.38;;;22.51;54.42
48882;BME280;57063;51.406;-2.402;2023-06-10T07:24:25;100267.03;;;23.47;51.27
48882;BME280;57063;51.406;-2.402;2023-06-10T07:26:51;100268.22;;;22.43;52.58
48882;BME280;57063;51.406;-2.402;2023-06-10T07:29:16;100266.72;;;22.88;52.61
48882;BME280;57063;51.406;-2.402;2023-06-10T07:31:42;100262.25;;;22.65;52.99
48882;BME280;57063;51.406;-2.402;2023-06-10T07:34:08;100266.53;;;21.78;54.88
48882;BME280;57063;51.406;-2.402;2023-06-10T07:36:33;100259.78;;;23.26;51.49
48882;BME280;57063;51.406;-2.402;2023-06-10T07:39:02;100269.97;;;22.59;52.08
48882;BME280;57063;51.406;-2.402;2023-06-10T07:41:27;100255.94;;;23.14;51.75
48882;BME280;57063;51.406;-2.402;2023-06-10T07:43:53;100255.28;;;23.35;50.67
48882;BME280;57063;51.406;-2.402;2023-06-10T07:49:21;100265.97;;;23.11;50.97
48882;BME280;57063;51.406;-2.402;2023-06-10T07:51:50;100266.16;;;22.70;52.04
48882;BME280;57063;51.406;-2.402;2023-06-10T07:54:15;100264.81;;;23.13;51.01
48882;BME280;57063;51.406;-2.402;2023-06-10T07:56:44;100272.25;;;23.10;51.73
48882;BME280;57063;51.406;-2.402;2023-06-10T07:59:23;100267.84;;;23.71;51.03
48882;BME280;57063;51.406;-2.402;2023-06-10T08:01:52;100271.75;;;22.67;51.77
48882;BME280;57063;51.406;-2.402;2023-06-10T08:04:18;100278.34;;;22.62;53.64
48882;BME280;57063;51.406;-2.402;2023-06-10T08:06:43;100281.16;;;22.92;52.16
48882;BME280;57063;51.406;-2.402;2023-06-10T08:09:09;100272.47;;;23.69;50.30
48882;BME280;57063;51.406;-2.402;2023-06-10T08:14:13;100268.66;;;22.94;51.22
48882;BME280;57063;51.406;-2.402;2023-06-10T08:16:43;100270.59;;;23.55;51.69
48882;BME280;57063;51.406;-2.402;2023-06-10T08:19:10;100268.84;;;23.47;51.00
48882;BME280;57063;51.406;-2.402;2023-06-10T08:21:36;100273.16;;;23.63;50.16
48882;BME280;57063;51.406;-2.402;2023-06-10T08:24:02;100276.44;;;23.19;51.81
48882;BME280;57063;51.406;-2.402;2023-06-10T08:26:28;100279.72;;;23.21;50.66
48882;BME280;57063;51.406;-2.402;2023-06-10T08:28:53;100280.53;;;23.67;49.76
48882;BME280;57063;51.406;-2.402;2023-06-10T08:31:20;100280.31;;;24.15;49.71
48882;BME280;57063;51.406;-2.402;2023-06-10T08:33:46;100280.25;;;24.53;48.81
48882;BME280;57063;51.406;-2.402;2023-06-10T08:36:11;100270.19;;;24.93;47.69
48882;BME280;57063;51.406;-2.402;2023-06-10T08:38:37;100267.16;;;25.32;47.74
48882;BME280;57063;51.406;-2.402;2023-06-10T08:41:04;100272.84;;;25.14;46.61
48882;BME280;57063;51.406;-2.402;2023-06-10T08:43:44;100278.63;;;25.03;46.61
48882;BME280;57063;51.406;-2.402;2023-06-10T08:46:11;100275.09;;;26.03;46.71
48882;BME280;57063;51.406;-2.402;2023-06-10T08:48:42;100281.69;;;25.86;47.75
48882;BME280;57063;51.406;-2.402;2023-06-10T08:51:09;100271.50;;;26.53;43.90
48882;BME280;57063;51.406;-2.402;2023-06-10T08:53:36;100253.91;;;26.32;45.04
48882;BME280;57063;51.406;-2.402;2023-06-10T08:56:04;100262.47;;;26.82;44.90
48882;BME280;57063;51.406;-2.402;2023-06-10T08:58:32;100249.91;;;26.49;45.69
48882;BME280;57063;51.406;-2.402;2023-06-10T09:00:58;100249.38;;;26.67;44.70
48882;BME280;57063;51.406;-2.402;2023-06-10T09:03:25;100241.53;;;26.45;44.07
48882;BME280;57063;51.406;-2.402;2023-06-10T09:05:50;100246.94;;;27.47;43.04
48882;BME280;57063;51.406;-2.402;2023-06-10T09:08:16;100242.34;;;27.01;43.38
48882;BME280;57063;51.406;-2.402;2023-06-10T09:10:42;100246.53;;;27.37;42.91
48882;BME280;57063;51.406;-2.402;2023-06-10T09:13:07;100239.19;;;27.39;42.55
48882;BME280;57063;51.406;-2.402;2023-06-10T09:15:33;100229.78;;;27.63;43.25
48882;BME280;57063;51.406;-2.402;2023-06-10T09:17:59;100224.09;;;27.86;42.36
48882;BME280;57063;51.406;-2.402;2023-06-10T09:20:25;100212.66;;;27.79;41.97
48882;BME280;57063;51.406;-2.402;2023-06-10T09:22:50;100225.66;;;28.13;42.08
48882;BME280;57063;51.406;-2.402;2023-06-10T09:25:16;100218.59;;;28.52;40.61
48882;BME280;57063;51.406;-2.402;2023-06-10T09:27:45;100218.91;;;28.11;42.27
48882;BME280;57063;51.406;-2.402;2023-06-10T09:30:33;100226.09;;;28.04;42.19
48882;BME280;57063;51.406;-2.402;2023-06-10T09:33:03;100224.09;;;28.57;41.18
48882;BME280;57063;51.406;-2.402;2023-06-10T09:35:34;100233.44;;;29.05;41.07
48882;BME280;57063;51.406;-2.402;2023-06-10T09:38:00;100227.91;;;29.07;40.91
48882;BME280;57063;51.406;-2.402;2023-06-10T09:40:27;100233.56;;;29.49;40.73
48882;BME280;57063;51.406;-2.402;2023-06-10T09:42:55;100226.25;;;29.88;40.11
48882;BME280;57063;51.406;-2.402;2023-06-10T09:45:20;100222.53;;;30.32;38.74
48882;BME280;57063;51.406;-2.402;2023-06-10T09:47:47;100234.63;;;30.77;38.71
48882;BME280;57063;51.406;-2.402;2023-06-10T09:50:13;100238.88;;;29.49;39.17
48882;BME280;57063;51.406;-2.402;2023-06-10T09:52:38;100239.44;;;30.38;38.35
48882;BME280;57063;51.406;-2.402;2023-06-10T09:55:04;100240.84;;;30.40;38.77
48882;BME280;57063;51.406;-2.402;2023-06-10T09:57:33;100237.63;;;30.68;36.72
48882;BME280;57063;51.406;-2.402;2023-06-10T09:59:59;100243.19;;;30.67;38.19
48882;BME280;57063;51.406;-2.402;2023-06-10T10:02:24;100240.34;;;31.10;37.15
48882;BME280;57063;51.406;-2.402;2023-06-10T10:04:50;100243.34;;;31.56;36.49
48882;BME280;57063;51.406;-2.402;2023-06-10T10:07:15;100244.97;;;31.03;38.04
48882;BME280;57063;51.406;-2.402;2023-06-10T10:09:41;100250.94;;;31.29;37.43
48882;BME280;57063;51.406;-2.402;2023-06-10T10:12:15;100247.84;;;30.71;37.06
48882;BME280;57063;51.406;-2.402;2023-06-10T10:14:46;100246.25;;;31.66;36.87
48882;BME280;57063;51.406;-2.402;2023-06-10T10:17:14;100234.75;;;31.54;35.37
48882;BME280;57063;51.406;-2.402;2023-06-10T10:19:45;100241.56;;;32.09;35.61
48882;BME280;57063;51.406;-2.402;2023-06-10T10:22:16;100241.84;;;32.36;34.65
48882;BME280;57063;51.406;-2.402;2023-06-10T10:24:53;100249.94;;;31.77;35.72
48882;BME280;57063;51.406;-2.402;2023-06-10T10:27:27;100245.28;;;31.84;34.99
48882;BME280;57063;51.406;-2.402;2023-06-10T10:29:54;100250.16;;;31.40;35.80
48882;BME280;57063;51.406;-2.402;2023-06-10T10:32:32;100241.09;;;30.39;37.39
48882;BME280;57063;51.406;-2.402;2023-06-10T10:35:13;100240.97;;;30.94;37.09
48882;BME280;57063;51.406;-2.402;2023-06-10T10:37:41;100232.00;;;31.19;36.65
48882;BME280;57063;51.406;-2.402;2023-06-10T10:40:08;100229.75;;;31.81;35.54
48882;BME280;57063;51.406;-2.402;2023-06-10T10:42:34;100237.75;;;31.93;36.44
48882;BME280;57063;51.406;-2.402;2023-06-10T10:45:01;100238.94;;;30.78;36.70
48882;BME280;57063;51.406;-2.402;2023-06-10T10:47:28;100236.97;;;31.03;36.67
48882;BME280;57063;51.406;-2.402;2023-06-10T10:49:55;100241.75;;;30.34;37.15
48882;BME280;57063;51.406;-2.402;2023-06-10T10:52:24;100244.56;;;30.88;36.81
48882;BME280;57063;51.406;-2.402;2023-06-10T10:54:52;100242.69;;;30.58;37.44
48882;BME280;57063;51.406;-2.402;2023-06-10T10:57:20;100244.00;;;29.18;38.89
48882;BME280;57063;51.406;-2.402;2023-06-10T11:02:18;100240.38;;;30.06;38.29
48882;BME280;57063;51.406;-2.402;2023-06-10T11:04:46;100243.09;;;30.43;38.23
48882;BME280;57063;51.406;-2.402;2023-06-10T11:07:12;100236.88;;;31.10;37.41
48882;BME280;57063;51.406;-2.402;2023-06-10T11:10:02;100242.03;;;30.75;37.19
48882;BME280;57063;51.406;-2.402;2023-06-10T11:12:55;100241.03;;;30.57;38.62
48882;BME280;57063;51.406;-2.402;2023-06-10T11:15:29;100237.91;;;31.21;36.59
48882;BME280;57063;51.406;-2.402;2023-06-10T11:18:13;100239.28;;;31.00;37.29
48882;BME280;57063;51.406;-2.402;2023-06-10T11:33:54;100220.22;;;32.09;35.45
48882;BME280;57063;51.406;-2.402;2023-06-10T11:36:20;100221.84;;;32.10;35.91
48882;BME280;57063;51.406;-2.402;2023-06-10T11:38:46;100222.00;;;32.44;36.15
48882;BME280;57063;51.406;-2.402;2023-06-10T11:41:11;100221.31;;;32.36;35.10
48882;BME280;57063;51.406;-2.402;2023-06-10T11:43:43;100226.59;;;31.37;36.44
48882;BME280;57063;51.406;-2.402;2023-06-10T11:46:09;100233.56;;;30.96;37.07
48882;BME280;57063;51.406;-2.402;2023-06-10T11:48:34;100226.25;;;30.91;37.55
48882;BME280;57063;51.406;-2.402;2023-06-10T11:51:00;100223.94;;;30.65;37.91
48882;BME280;57063;51.406;-2.402;2023-06-10T11:53:25;100232.38;;;30.62;38.18
48882;BME280;57063;51.406;-2.402;2023-06-10T11:55:50;100229.09;;;30.78;38.12
48882;BME280;57063;51.406;-2.402;2023-06-10T11:58:21;100235.25;;;30.60;38.32
48882;BME280;57063;51.406;-2.402;2023-06-10T12:00:54;100225.44;;;30.61;38.03
48882;BME280;57063;51.406;-2.402;2023-06-10T12:03:21;100233.09;;;30.39;38.73
48882;BME280;57063;51.406;-2.402;2023-06-10T12:06:13;100235.28;;;30.23;39.24
48882;BME280;57063;51.406;-2.402;2023-06-10T12:08:43;100232.63;;;30.05;39.14
48882;BME280;57063;51.406;-2.402;2023-06-10T12:11:08;100230.25;;;29.97;39.69
48882;BME280;57063;51.406;-2.402;2023-06-10T12:13:34;100227.13;;;29.81;39.75
48882;BME280;57063;51.406;-2.402;2023-06-10T12:16:09;100231.28;;;29.96;39.58
48882;BME280;57063;51.406;-2.402;2023-06-10T12:18:34;100234.47;;;29.61;39.82
48882;BME280;57063;51.406;-2.402;2023-06-10T12:21:00;100230.56;;;29.07;41.19
48882;BME280;57063;51.406;-2.402;2023-06-10T12:23:25;100232.88;;;29.28;40.58
48882;BME280;57063;51.406;-2.402;2023-06-10T12:25:53;100234.88;;;29.08;41.18
48882;BME280;57063;51.406;-2.402;2023-06-10T12:28:23;100231.25;;;29.77;40.57
48882;BME280;57063;51.406;-2.402;2023-06-10T12:30:48;100241.19;;;29.63;40.32
48882;BME280;57063;51.406;-2.402;2023-06-10T12:33:21;100236.91;;;30.61;39.72
48882;BME280;57063;51.406;-2.402;2023-06-10T12:35:53;100235.56;;;30.70;38.61
48882;BME280;57063;51.406;-2.402;2023-06-10T12:38:25;100239.56;;;30.61;39.31
48882;BME280;57063;51.406;-2.402;2023-06-10T12:40:57;100237.53;;;31.05;38.72
48882;BME280;57063;51.406;-2.402;2023-06-10T12:43:26;100234.63;;;30.77;38.43
48882;BME280;57063;51.406;-2.402;2023-06-10T12:45:51;100228.31;;;30.59;38.55
48882;BME280;57063;51.406;-2.402;2023-06-10T12:48:21;100229.09;;;30.29;39.27
48882;BME280;57063;51.406;-2.402;2023-06-10T12:50:52;100226.63;;;29.91;40.67
48882;BME280;57063;51.406;-2.402;2023-06-10T12:53:18;100227.03;;;30.32;39.72
48882;BME280;57063;51.406;-2.402;2023-06-10T12:55:45;100221.06;;;30.66;39.20
48882;BME280;57063;51.406;-2.402;2023-06-10T12:58:11;100227.91;;;31.04;38.77
48882;BME280;57063;51.406;-2.402;2023-06-10T13:00:36;100219.63;;;31.36;38.10